Flight Track Log - Related Links

Times and Time Zones

All times are in EDT time to prevent confusion due to time zone crossing. See the N130LH flight status page for this flight to view local times or setup timezone preferences in your user account.

Time Position Orientation Groundspeed Altitude Reporting Facility
EDT Latitude Longitude Course Direction KTS MPH feet Rate Location/Type
Fri 08:57:57 AM 35.2439 -89.4469 91° East 11,000  Level
Fri 08:58:57 AM 35.2433 -89.3908 96° East 159 183 9,100 -700 Descending D
Fri 08:59:57 AM 35.2389 -89.3400 93° East 154 177 9,600 500 Climbing C
Fri 09:00:57 AM 35.2364 -89.2867 88° East 154 177 10,100 450 Climbing C
Fri 09:01:57 AM 35.2381 -89.2333 91° East 159 183 10,500 400 Climbing C
Fri 09:02:57 AM 35.2375 -89.1750 75° East 159 183 10,900 200 Climbing Memphis Center
Fri 09:03:57 AM 35.2494 -89.1189 63° Northeast 159 183 10,900  Level Memphis Center
Fri 09:04:57 AM 35.2697 -89.0703 60° Northeast 166 191 10,900  Level Memphis Center
Fri 09:05:57 AM 35.2942 -89.0189 62° Northeast 182 209 10,900  Level Memphis Center
Fri 09:06:57 AM 35.3186 -88.9625 60° Northeast 182 209 10,900  Level Memphis Center
Fri 09:07:57 AM 35.3431 -88.9114 63° Northeast 177 204 10,900  Level Memphis Center
Fri 09:08:57 AM 35.3653 -88.8575 61° Northeast 177 204 10,900  Level Memphis Center
Fri 09:09:57 AM 35.3897 -88.8033 62° Northeast 177 204 10,900  Level Memphis Center
Fri 09:10:57 AM 35.4142 -88.7469 61° Northeast 177 204 10,900  Level Memphis Center
Fri 09:11:57 AM 35.4383 -88.6931 63° Northeast 177 204 10,900  Level Memphis Center
Fri 09:12:57 AM 35.4606 -88.6389 62° Northeast 177 204 10,900  Level Memphis Center
Fri 09:13:57 AM 35.4847 -88.5825 62° Northeast 177 204 10,900  Level Memphis Center
Fri 09:14:57 AM 35.5069 -88.5308 62° Northeast 177 204 10,900  Level Memphis Center
Fri 09:15:57 AM 35.5292 -88.4794 63° Northeast 177 204 10,900  Level Memphis Center
Fri 09:16:57 AM 35.5514 -88.4253 64° Northeast 177 204 10,900  Level Memphis Center
Fri 09:17:57 AM 35.5733 -88.3711 60° Northeast 177 204 10,900  Level Memphis Center
Fri 09:18:57 AM 35.5975 -88.3194 62° Northeast 177 204 10,900  Level Memphis Center
Fri 09:19:57 AM 35.6217 -88.2628 60° Northeast 177 204 10,900 50 Level Memphis Center
Fri 09:20:57 AM 35.6458 -88.2111 55° Northeast 177 204 11,000 50 Climbing Memphis Center
Fri 09:21:57 AM 35.6719 -88.1644 53° Northeast 172 198 11,000  Level Memphis Center
Fri 09:22:57 AM 35.7025 -88.1150 53° Northeast 172 198 11,000  Level Memphis Center
Fri 09:23:57 AM 35.7308 -88.0681 54° Northeast 172 198 11,000  Level Memphis Center
Fri 09:24:57 AM 35.7569 -88.0239 61° Northeast 172 198 11,000  Level Memphis Center
Fri 09:25:57 AM 35.7811 -87.9694 66° East 172 198 11,000  Level Memphis Center
Fri 09:26:57 AM 35.8008 -87.9153 64° Northeast 172 198 11,000  Level Memphis Center
Fri 09:27:57 AM 35.8228 -87.8608 62° Northeast 172 198 11,000 -50 Level Memphis Center
Fri 09:28:57 AM 35.8447 -87.8089 64° Northeast 177 204 10,900 -50 Descending Memphis Center
Fri 09:29:57 AM 35.8664 -87.7544 64° Northeast 172 198 10,900  Level Memphis Center
Fri 09:30:57 AM 35.8883 -87.7000 63° Northeast 172 198 10,900  Level Memphis Center
Fri 09:31:57 AM 35.9119 -87.6428 64° Northeast 177 204 10,900  Level Memphis Center
Fri 09:32:57 AM 35.9336 -87.5883 62° Northeast 177 204 10,900  Level Memphis Center
Fri 09:33:37 AM 35.9500 -87.5500 90° East 174 200 10,900  Level
Fri 09:33:55 AM 35.9500 -87.5333 357° North 174 200 10,900  Level
Fri 09:33:57 AM 35.9553 -87.5336 62° Northeast 177 204 10,900  Level Memphis Center
Fri 09:34:57 AM 35.9772 -87.4817 348° North 177 204 10,900  Level Memphis Center
Fri 09:35:01 AM 35.9833 -87.4833 73° East 172 198 10,900  Level
Fri 09:35:57 AM 35.9967 -87.4297 319° Northwest 177 204 10,900  Level Memphis Center
Fri 09:36:01 AM 36.0000 -87.4333 68° East 170 196 10,900  Level
Fri 09:36:57 AM 36.0186 -87.3775 102° East 172 198 10,900  Level Memphis Center
Fri 09:37:07 AM 36.0167 -87.3667 55° Northeast 169 194 10,900  Level
Fri 09:37:57 AM 36.0403 -87.3256 37° Northeast 172 198 10,900  Level Memphis Center
Fri 09:38:07 AM 36.0500 -87.3167 75° East 169 194 10,900  Level
Fri 09:38:57 AM 36.0597 -87.2733 70° East 167 192 10,900  Level Memphis Center
Fri 09:39:13 AM 36.0667 -87.2500 59° Northeast 168 193 10,900  Level
Fri 09:39:57 AM 36.0794 -87.2239 79° East 167 192 10,900  Level Memphis Center
Fri 09:40:13 AM 36.0833 -87.2000 52° Northeast 169 194 10,900  Level
Fri 09:40:57 AM 36.1031 -87.1689 101° East 162 186 10,900  Level Memphis Center
Fri 09:41:07 AM 36.1000 -87.1500 48° Northeast 169 194 10,900  Level
Fri 09:41:57 AM 36.1206 -87.1219 54° Northeast 162 186 10,900  Level Memphis Center
Fri 09:42:07 AM 36.1333 -87.1000 72° East 167 192 10,900  Level
Fri 09:42:57 AM 36.1400 -87.0750 64° Northeast 162 186 10,900  Level Memphis Center
Fri 09:43:13 AM 36.1500 -87.0500 67° East 165 190 10,900  Level
Fri 09:43:57 AM 36.1594 -87.0228 68° East 162 186 10,900  Level Memphis Center
Fri 09:44:07 AM 36.1667 -87.0000 60° Northeast 165 190 10,900  Level
Fri 09:44:57 AM 36.1792 -86.9731 78° East 162 186 10,900  Level Memphis Center
Fri 09:45:07 AM 36.1833 -86.9500 54° Northeast 165 190 10,900  Level
Fri 09:45:57 AM 36.2006 -86.9208 92° East 162 186 10,900  Level Memphis Center
Fri 09:46:08 AM 36.2000 -86.9000 52° Northeast 166 191 10,900  Level
Fri 09:46:57 AM 36.2200 -86.8686 48° Northeast 162 186 10,900  Level Memphis Center
Fri 09:47:14 AM 36.2333 -86.8500 77° East 167 192 10,900  Level
Fri 09:47:57 AM 36.2394 -86.8161 51° Northeast 162 186 10,900  Level Memphis Center
Fri 09:48:14 AM 36.2500 -86.8000 73° East 166 191 10,900  Level
Fri 09:49:20 AM 36.2667 -86.7333 58° Northeast 166 191 10,900  Level
Fri 09:50:08 AM 36.2833 -86.7000 58° Northeast 166 191 10,900  Level
Fri 09:51:14 AM 36.3167 -86.6333 68° East 167 192 10,900  Level
Fri 09:52:14 AM 36.3333 -86.5833 67° East 167 192 10,900  Level
Fri 09:53:14 AM 36.3500 -86.5333 67° East 168 193 10,900  Level
Fri 09:54:14 AM 36.3667 -86.4833 68° East 169 194 10,900  Level
Fri 09:55:14 AM 36.3833 -86.4333 50° Northeast 170 196 10,900 50 Level
Fri 09:56:14 AM 36.4167 -86.3833 68° East 171 197 11,000  Climbing C
Fri 09:57:08 AM 36.4333 -86.3333 70° East 172 198 10,900 -47 Descending D
Fri 09:57:21 AM 36.4308 -86.3308 67° East 11,000  Climbing C
Fri 09:58:21 AM 36.4519 -86.2703 62° Northeast 198 228 10,900 -50 Descending Memphis Center
Fri 09:59:21 AM 36.4731 -86.2203 64° Northeast 175 201 10,900  Level Memphis Center
Fri 10:00:21 AM 36.4942 -86.1675 66° East 175 201 10,900  Level Memphis Center
Fri 10:01:21 AM 36.5153 -86.1097 62° Northeast 170 196 10,900  Level Memphis Center
Fri 10:02:21 AM 36.5383 -86.0567 66° East 164 189 10,900  Level Memphis Center
Fri 10:03:21 AM 36.5575 -86.0042 66° East 164 189 10,900  Level Memphis Center
Fri 10:04:21 AM 36.5764 -85.9514 64° Northeast 164 189 10,900  Level Memphis Center
Fri 10:05:21 AM 36.5956 -85.9014 64° Northeast 164 189 10,900  Level Memphis Center
Fri 10:06:00 AM 36.6100 -85.8647 70° East 170 196 10,900  Level Indianapolis Center
Fri 10:07:00 AM 36.6236 -85.8186 62° Northeast 176 203 10,900  Level Indianapolis Center
Fri 10:08:00 AM 36.6453 -85.7675 68° East 171 197 10,900 50 Level Indianapolis Center
Fri 10:09:00 AM 36.6631 -85.7136 65° Northeast 171 197 11,000 50 Climbing Indianapolis Center
Fri 10:10:00 AM 36.6828 -85.6597 62° Northeast 171 197 11,000  Level Indianapolis Center
Fri 10:11:00 AM 36.7044 -85.6086 64° Northeast 171 197 11,000  Level Indianapolis Center
Fri 10:12:00 AM 36.7242 -85.5572 65° Northeast 171 197 11,000  Level Indianapolis Center
Fri 10:13:00 AM 36.7439 -85.5033 63° Northeast 171 197 11,000  Level Indianapolis Center
Fri 10:14:00 AM 36.7656 -85.4494 67° East 171 197 11,000  Level Indianapolis Center
Fri 10:15:00 AM 36.7853 -85.3903 64° Northeast 171 197 11,000  Level Indianapolis Center
Fri 10:16:00 AM 36.8050 -85.3389 63° Northeast 171 197 11,000  Level Indianapolis Center
Fri 10:17:00 AM 36.8267 -85.2850 65° Northeast 171 197 11,000  Level Indianapolis Center
Fri 10:18:00 AM 36.8461 -85.2336 63° Northeast 171 197 11,000  Level Indianapolis Center
Fri 10:19:00 AM 36.8678 -85.1794 66° East 171 197 11,000  Level Indianapolis Center
Fri 10:20:00 AM 36.8872 -85.1253 67° East 171 197 11,000  Level Indianapolis Center
Fri 10:21:00 AM 36.9047 -85.0739 63° Northeast 171 197 11,000  Level Indianapolis Center
Fri 10:22:00 AM 36.9261 -85.0222 66° East 171 197 11,000  Level Indianapolis Center
Fri 10:23:00 AM 36.9456 -84.9681 65° Northeast 171 197 11,000  Level Indianapolis Center
Fri 10:24:00 AM 36.9650 -84.9164 65° Northeast 171 197 11,000  Level Indianapolis Center
Fri 10:25:00 AM 36.9842 -84.8647 64° Northeast 171 197 11,000  Level Indianapolis Center
Fri 10:26:00 AM 37.0036 -84.8158 65° Northeast 166 191 11,000  Level Indianapolis Center
Fri 10:27:00 AM 37.0231 -84.7639 66° East 166 191 11,000  Level Indianapolis Center
Fri 10:28:00 AM 37.0381 -84.7225 72° East 154 177 11,000  Level Indianapolis Center
Fri 10:29:00 AM 37.0553 -84.6578 65° Northeast 165 190 11,000  Level Indianapolis Center
Fri 10:30:00 AM 37.0744 -84.6061 65° Northeast 165 190 11,000  Level Indianapolis Center
Fri 10:31:00 AM 37.0936 -84.5542 65° Northeast 160 184 11,000  Level Indianapolis Center
Fri 10:32:00 AM 37.1131 -84.5025 64° Northeast 160 184 11,000  Level Indianapolis Center
Fri 10:33:00 AM 37.1342 -84.4481 65° Northeast 155 178 11,000  Level Indianapolis Center
Fri 10:34:00 AM 37.1533 -84.3961 66° East 155 178 11,000  Level Indianapolis Center
Fri 10:35:00 AM 37.1725 -84.3417 64° Northeast 155 178 11,000  Level Indianapolis Center
Fri 10:36:00 AM 37.1917 -84.2922 66° East 155 178 11,000  Level Indianapolis Center
Fri 10:37:00 AM 37.2108 -84.2378 67° East 161 185 11,000  Level Indianapolis Center
Fri 10:38:00 AM 37.2297 -84.1831 66° East 161 185 11,000  Level Indianapolis Center
Fri 10:39:00 AM 37.2489 -84.1283 64° Northeast 166 191 11,000  Level Indianapolis Center
Fri 10:40:00 AM 37.2700 -84.0736 65° Northeast 171 197 11,000  Level Indianapolis Center
Fri 10:41:00 AM 37.2911 -84.0164 67° East 171 197 11,000  Level Indianapolis Center
Fri 10:42:00 AM 37.3100 -83.9592 64° Northeast 171 197 11,000  Level Indianapolis Center
Fri 10:43:00 AM 37.3311 -83.9044 68° East 171 197 11,000  Level Indianapolis Center
Fri 10:44:00 AM 37.3500 -83.8469 64° Northeast 171 197 11,000  Level Indianapolis Center
Fri 10:45:00 AM 37.3711 -83.7922 68° East 171 197 11,000  Level Indianapolis Center
Fri 10:46:00 AM 37.3900 -83.7347 63° Northeast 171 197 11,000  Level Indianapolis Center
Fri 10:47:00 AM 37.4108 -83.6825 66° East 171 197 11,000  Level Indianapolis Center
Fri 10:48:00 AM 37.4317 -83.6225 65° Northeast 171 197 11,000  Level Indianapolis Center
Fri 10:49:00 AM 37.4525 -83.5675 67° East 171 197 11,000  Level Indianapolis Center
Fri 10:50:00 AM 37.4714 -83.5100 66° East 171 197 11,000  Level Indianapolis Center
Fri 10:51:00 AM 37.4922 -83.4522 65° Northeast 171 197 11,000  Level Indianapolis Center
Fri 10:52:00 AM 37.5131 -83.3947 66° East 171 197 11,000  Level Indianapolis Center
Fri 10:53:00 AM 37.5317 -83.3422 66° East 171 197 11,000  Level Indianapolis Center
Fri 10:54:00 AM 37.5525 -83.2844 66° East 171 197 11,000  Level Indianapolis Center
Fri 10:55:00 AM 37.5731 -83.2269 68° East 171 197 11,000  Level Indianapolis Center
Fri 10:56:00 AM 37.5917 -83.1692 68° East 176 203 11,000  Level Indianapolis Center
Fri 10:57:00 AM 37.6103 -83.1114 66° East 176 203 11,000  Level Indianapolis Center
Fri 10:58:00 AM 37.6308 -83.0536 64° Northeast 171 197 11,000  Level Indianapolis Center
Fri 10:59:00 AM 37.6536 -82.9956 66° East 171 197 11,000  Level Indianapolis Center
Fri 11:00:00 AM 37.6742 -82.9378 69° East 176 203 11,000  Level Indianapolis Center
Fri 11:01:00 AM 37.6925 -82.8772 66° East 176 203 11,000  Level Indianapolis Center
Fri 11:02:00 AM 37.7131 -82.8192 66° East 171 197 11,000  Level Indianapolis Center
Fri 11:03:00 AM 37.7336 -82.7614 66° East 171 197 11,000  Level Indianapolis Center
Fri 11:04:00 AM 37.7542 -82.7033 66° East 171 197 11,000  Level Indianapolis Center
Fri 11:05:00 AM 37.7764 -82.6400 68° East 171 197 11,000  Level Indianapolis Center
Fri 11:06:00 AM 37.7947 -82.5819 65° Northeast 171 197 11,000  Level Indianapolis Center
Fri 11:07:00 AM 37.8153 -82.5264 67° East 171 197 11,000  Level Indianapolis Center
Fri 11:08:00 AM 37.8356 -82.4656 67° East 171 197 11,000  Level Indianapolis Center
Fri 11:09:00 AM 37.8539 -82.4103 66° East 171 197 11,000  Level Indianapolis Center
Fri 11:10:00 AM 37.8742 -82.3519 66° East 171 197 11,000  Level Indianapolis Center
Fri 11:11:00 AM 37.8942 -82.2936 65° Northeast 176 203 11,000  Level Indianapolis Center
Fri 11:12:00 AM 37.9144 -82.2381 69° East 171 197 11,000  Level Indianapolis Center
Fri 11:13:00 AM 37.9325 -82.1797 69° East 171 197 11,000 -50 Level Indianapolis Center
Fri 11:14:00 AM 37.9506 -82.1189 66° East 171 197 10,900 -50 Descending Indianapolis Center
Fri 11:15:00 AM 37.9708 -82.0606 66° East 171 197 10,900  Level Indianapolis Center
Fri 11:16:00 AM 37.9908 -82.0022 66° East 171 197 10,900  Level Indianapolis Center
Fri 11:17:00 AM 38.0111 -81.9439 69° East 171 197 10,900  Level Indianapolis Center
Fri 11:18:00 AM 38.0289 -81.8853 64° Northeast 171 197 10,900  Level Indianapolis Center
Fri 11:19:00 AM 38.0511 -81.8269 69° East 171 197 10,900  Level Indianapolis Center
Fri 11:20:00 AM 38.0689 -81.7683 65° Northeast 171 197 10,900  Level Indianapolis Center
Fri 11:21:00 AM 38.0908 -81.7072 69° East 171 197 10,900  Level Indianapolis Center
Fri 11:22:00 AM 38.1089 -81.6486 68° East 171 197 10,900  Level Indianapolis Center
Fri 11:23:00 AM 38.1286 -81.5875 68° East 171 197 10,900  Level Indianapolis Center
Fri 11:24:00 AM 38.1483 -81.5261 67° East 171 197 10,900  Level Indianapolis Center
Fri 11:25:00 AM 38.1683 -81.4647 65° Northeast 171 197 10,900  Level Indianapolis Center
Fri 11:26:00 AM 38.1900 -81.4061 70° East 171 197 10,900  Level Indianapolis Center
Fri 11:27:00 AM 38.2078 -81.3447 68° East 171 197 10,900  Level Indianapolis Center
Fri 11:28:00 AM 38.2275 -81.2833 67° East 171 197 10,900  Level Indianapolis Center
Fri 11:29:00 AM 38.2472 -81.2244 64° Northeast 171 197 10,900  Level Indianapolis Center
Fri 11:30:00 AM 38.2689 -81.1683 61° Northeast 171 197 10,900  Level Indianapolis Center
Fri 11:31:00 AM 38.2950 -81.1092 60° Northeast 176 203 10,900  Level Indianapolis Center
Fri 11:32:00 AM 38.3208 -81.0528 62° Northeast 176 203 10,900  Level Indianapolis Center
Fri 11:33:00 AM 38.3447 -80.9964 63° Northeast 181 208 10,900 50 Level Indianapolis Center
Fri 11:34:00 AM 38.3683 -80.9372 67° East 181 208 11,000  Climbing Indianapolis Center
Fri 11:35:00 AM 38.3878 -80.8783 63° Northeast 181 208 10,900 -50 Descending Indianapolis Center
Fri 11:36:00 AM 38.4117 -80.8192 68° East 181 208 10,900 43 Level Indianapolis Center
Fri 11:37:21 AM 38.4311 -80.7578 70° East 178 205 11,000 42 Climbing Washington Center
Fri 11:38:22 AM 38.4531 -80.6822 73° East 178 205 11,000 50 Level Washington Center
Fri 11:39:21 AM 38.4683 -80.6197 76° East 183 211 11,100 -50 Climbing Washington Center
Fri 11:40:22 AM 38.4817 -80.5517 76° East 183 211 10,900 -50 Descending Washington Center
Fri 11:41:22 AM 38.4947 -80.4861 71° East 183 211 11,000  Climbing Washington Center
Fri 11:42:21 AM 38.5119 -80.4236 65° Northeast 183 211 10,900 -50 Descending Washington Center
Fri 11:43:22 AM 38.5328 -80.3667 64° Northeast 183 211 10,900  Level Washington Center
Fri 11:44:22 AM 38.5539 -80.3122 59° Northeast 183 211 10,900  Level Washington Center
Fri 11:45:22 AM 38.5789 -80.2581 68° East 183 211 10,900  Level Washington Center
Fri 11:46:22 AM 38.5978 -80.1981 69° East 183 211 10,900 50 Level Washington Center
Fri 11:47:22 AM 38.6169 -80.1356 68° East 178 205 11,000 50 Climbing Washington Center
Fri 11:48:21 AM 38.6358 -80.0756 63° Northeast 178 205 11,000  Level Washington Center
Fri 11:49:21 AM 38.6611 -80.0106 74° East 178 205 11,000 -50 Level Washington Center
Fri 11:50:21 AM 38.6761 -79.9450 71° East 183 211 10,900 -50 Descending Washington Center
Fri 11:51:21 AM 38.6931 -79.8822 76° East 188 216 10,900  Level Washington Center
Fri 11:52:22 AM 38.7056 -79.8189 77° East 183 211 10,900  Level Washington Center
Fri 11:53:22 AM 38.7161 -79.7611 65° Northeast 183 211 10,900  Level Washington Center
Fri 11:54:21 AM 38.7389 -79.6986 66° East 183 211 10,900 50 Level Washington Center
Fri 11:55:22 AM 38.7597 -79.6383 67° East 183 211 11,000  Climbing Washington Center
Fri 11:56:22 AM 38.7808 -79.5731 64° Northeast 183 211 10,900 -50 Descending Washington Center
Fri 11:57:21 AM 38.8036 -79.5131 64° Northeast 193 222 10,900 46 Level Washington Center
Fri 11:58:33 AM 38.8264 -79.4528 65° Northeast 190 219 11,000 45 Climbing Washington Center
Fri 11:59:34 AM 38.8517 -79.3822 65° Northeast 190 219 11,000  Level Washington Center
Fri 12:00:33 PM 38.8744 -79.3194 64° Northeast 184 212 11,000  Level Washington Center
Fri 12:01:33 PM 38.8972 -79.2592 57° Northeast 189 217 11,000  Level Washington Center
Fri 12:02:34 PM 38.9258 -79.2019 56° Northeast 189 217 11,000  Level Washington Center
Fri 12:03:33 PM 38.9547 -79.1472 55° Northeast 189 217 11,000  Level Washington Center
Fri 12:04:34 PM 38.9856 -79.0900 57° Northeast 189 217 11,000  Level Washington Center
Fri 12:05:34 PM 39.0142 -79.0325 61° Northeast 189 217 11,000  Level Washington Center
Fri 12:06:34 PM 39.0411 -78.9697 62° Northeast 189 217 11,000  Level Washington Center
Fri 12:07:33 PM 39.0658 -78.9094 61° Northeast 189 217 11,000  Level Washington Center
Fri 12:08:34 PM 39.0925 -78.8464 63° Northeast 184 212 11,000 50 Level Washington Center
Fri 12:09:33 PM 39.1169 -78.7858 59° Northeast 184 212 11,100  Climbing Washington Center
Fri 12:10:34 PM 39.1436 -78.7283 63° Northeast 189 217 11,000 -298 Descending D
Fri 12:11:34 PM 39.1703 -78.6597 66° East 196 226 10,500 -605 Descending D
Fri 12:12:33 PM 39.1972 -78.5833 53° Northeast 196 226 9,800 -659 Descending D
Fri 12:13:05 PM 39.2167 -78.5500 74° East 210 242 9,500 -590 Descending D
Fri 12:13:34 PM 39.2239 -78.5172 70° East 203 234 9,200 -556 Descending Washington Center
Fri 12:13:59 PM 39.2333 -78.4833 62° Northeast 212 244 9,000 -300 Descending D
Fri 12:14:34 PM 39.2464 -78.4511 75° East 203 234 8,900 -111 Descending Washington Center
Fri 12:14:53 PM 39.2500 -78.4333 69° East 206 237 8,900  Level
Fri 12:15:34 PM 39.2644 -78.3850 55° Northeast 203 234 8,900  Level Washington Center
Fri 12:15:59 PM 39.2833 -78.3500 82° East 198 228 8,900 -305 Level
Fri 12:16:33 PM 39.2869 -78.3186 64° Northeast 193 222 8,600 -500 Descending D
Fri 12:16:59 PM 39.3000 -78.2833 52° Northeast 199 229 8,400 -492 Descending D
Fri 12:17:34 PM 39.3153 -78.2581 77° East 193 222 8,100 -436 Descending D
Fri 12:17:54 PM 39.3167 -78.2500 53° Northeast 201 231 8,000 -407 Descending D
Fri 12:18:33 PM 39.3394 -78.2108 63° Northeast 193 222 7,700 -500 Descending D
Fri 12:18:54 PM 39.3500 -78.1833 46° Northeast 202 232 7,500 -590 Descending D
Fri 12:19:34 PM 39.3803 -78.1422 66° East 198 228 7,100 -500 Descending D
Fri 12:19:54 PM 39.3833 -78.1333 63° Northeast 201 231 7,000 -500 Descending D
Fri 12:20:34 PM 39.4047 -78.0786 37° Northeast 198 228 6,600 -556 Descending D
Fri 12:20:48 PM 39.4167 -78.0667 79° East 202 232 6,500 -500 Descending D
Fri 12:21:34 PM 39.4247 -78.0150 53° Northeast 192 221 6,100 -455 Descending D
Fri 12:21:54 PM 39.4333 -78.0000 82° East 198 228 6,000 -508 Descending D
Fri 12:22:33 PM 39.4386 -77.9483 115° Southeast 192 221 5,600 -500 Descending D
Fri 12:22:54 PM 39.4333 -77.9333 72° East 196 226 5,500 -444 Descending D
Fri 12:23:54 PM 39.4500 -77.8667 90° East 192 221 5,000 -579 Descending D
Fri 12:24:48 PM 39.4500 -77.8000 90° East 194 223 4,400 -500 Descending D
Fri 12:25:54 PM 39.4500 -77.7333 90° East 194 223 4,000 -248 Descending D
Fri 12:26:49 PM 39.4500 -77.6667 113° Southeast 180 207 3,900 -52 Descending D
Fri 12:27:49 PM 39.4333 -77.6167 131° Southeast 167 192 3,900  Level
Fri 12:28:49 PM 39.4000 -77.5667 113° Southeast 157 181 3,900  Level
Fri 12:29:49 PM 39.3833 -77.5167 113° Southeast 155 178 3,900  Level
Fri 12:30:49 PM 39.3667 -77.4667 67° East 157 181 3,900  Level
Fri 12:31:49 PM 39.3833 -77.4167 72° East 158 182 3,900  Level
Fri 12:32:50 PM 39.4000 -77.3500 90° East 157 181 3,900  Level
Fri 12:33:50 PM 39.4000 -77.3000 67° East 159 183 3,900  Level
Fri 12:34:50 PM 39.4167 -77.2500 67° East 158 182 3,900  Level
Fri 12:35:50 PM 39.4333 -77.2000 30° Northeast 159 183 3,900 -138 Level
Fri 12:36:50 PM 39.4667 -77.1833 38° Northeast 151 174 -211 Descending D
Fri 12:37:44 PM 39.5000 -77.1500 38° Northeast 159 183 3,500 1,579 Climbing C
Fri 12:38:44 PM 39.5333 -77.1167 14° North 166 191 3,000 -250 Descending D
Fri 12:39:44 PM 39.5833 -77.1000 14° North 167 192 3,000  Level

Login

Don't have an account? Register now (free) for customized features, flight alerts, and more!